Terminal Aerodrome Forecast
Issued by NWS Amarillo, TX

Home | Current Version | Previous Version | Text Only | Print | Product List | Glossary On
Versions: 1 2 3 4 5 6 7 8 9 10 11 12 13 14 15
183
FTUS44 KAMA 141736
TAFDHT
TAF
KDHT 141736Z 1418/1518 02005KT P6SM SCT200
     FM142100 20010KT P6SM BKN200
     FM150100 10007KT P6SM BKN080
     FM150700 32008KT P6SM BKN080=

USA.gov is the U.S. government's official web portal to all federal, state and local government web resources and services.